Agar, South Dakota
Current Conditions -  °F | °C
As of 1:53 AM on Saturday 29 Nov 2014 (Local Time) from KPIR Reporting Station
Clear Clear  
Wind Chill: 28°   Ceiling: Unl
Heat Index: 28°   Visibility: 10mi
Dew Point: 24°   Wind: 0mph
Humidity: 85%   Direction: NA
Pressure: 29.41"   Gusts: NA
Location:  44.84°N, 100.07°W
Report Text: KPIR 290753Z AUTO 00000KT 10SM CLR M02/M04 A2941 RMK AO2 SLP972 T10221044
Loading
Personal Weather Stations






























Interactive Weather Map New forecast layout! Learn more

10-Day Weather Forecast

Advertisements
Track Severe Weather on mobile